Time;durP1;ratioP1;P1;durP2;ratioP2;P2;SDS_P1;SDS_P2;PMS_P1;PMS_P2;Temp;Humidity;BMP_temperature;BMP_pressure;BME280_temperature;BME280_humidity;BME280_pressure;Samples;Min_cycle;Max_cycle;Signal;HPM_P1;HPM_P2
2021/04/22 00:01:10;;;;;;;293.00;271.40;;;;;;;;;;4382928;32;20081;-84
2021/04/22 00:03:43;;;;;;;360.88;332.87;;;;;;;;;;4367930;32;20085;-84
2021/04/22 00:06:13;;;;;;;228.90;211.37;;;;;;;;;;4386064;32;20409;-84
2021/04/22 00:08:44;;;;;;;244.25;224.23;;;;;;;;;;4396639;32;20424;-85
2021/04/22 00:11:15;;;;;;;237.05;220.80;;;;;;;;;;4380944;32;20150;-83
2021/04/22 00:13:45;;;;;;;213.37;197.07;;;;;;;;;;4373745;32;20052;-84
2021/04/22 00:16:16;;;;;;;311.52;290.50;;;;;;;;;;4361562;32;20115;-84
2021/04/22 00:18:47;;;;;;;234.40;218.57;;;;;;;;;;4379013;32;20132;-84
2021/04/22 00:21:18;;;;;;;136.15;127.05;;;;;;;;;;4387838;32;20078;-84
2021/04/22 00:23:49;;;;;;;173.98;161.60;;;;;;;;;;4379458;32;20110;-84
2021/04/22 00:26:19;;;;;;;203.23;188.95;;;;;;;;;;4385210;32;20156;-85
2021/04/22 00:28:50;;;;;;;122.75;113.97;;;;;;;;;;4391383;32;20076;-84
2021/04/22 00:31:21;;;;;;;159.55;148.35;;;;;;;;;;4392514;32;20086;-84
2021/04/22 00:34:01;;;;;;;120.07;111.55;;;;;;;;;;4374550;32;20078;-83
2021/04/22 00:36:31;;;;;;;210.95;196.43;;;;;;;;;;4386976;32;20078;-84
2021/04/22 00:39:01;;;;;;;135.10;125.80;;;;;;;;;;4386586;32;20051;-84
2021/04/22 00:41:29;;;;;;;129.30;120.53;;;;;;;;;;4378266;32;20488;-83
2021/04/22 00:43:58;;;;;;;105.85;97.62;;;;;;;;;;4382985;32;20161;-84
2021/04/22 00:46:30;;;;;;;151.05;140.15;;;;;;;;;;4387460;32;20087;-84
2021/04/22 00:49:01;;;;;;;54.92;51.53;;;;;;;;;;4365585;32;20078;-84
2021/04/22 00:51:32;;;;;;;176.87;163.82;;;;;;;;;;4376621;32;20138;-84
2021/04/22 00:54:03;;;;;;;213.50;198.85;;;;;;;;;;4383335;32;20118;-84
2021/04/22 00:56:31;;;;;;;217.10;200.65;;;;;;;;;;4388784;32;20540;-84
2021/04/22 00:59:01;;;;;;;89.15;83.18;;;;;;;;;;4378475;32;20129;-84
2021/04/22 01:01:31;;;;;;;51.42;47.92;;;;;;;;;;4377538;32;20103;-85
2021/04/22 01:04:03;;;;;;;219.55;203.68;;;;;;;;;;4390763;32;20093;-84
2021/04/22 01:06:31;;;;;;;278.50;259.23;;;;;;;;;;4385531;32;20106;-83
2021/04/22 01:09:03;;;;;;;330.65;308.70;;;;;;;;;;4377866;32;20031;-84
2021/04/22 01:11:34;;;;;;;133.93;124.78;;;;;;;;;;4385228;32;20445;-83
2021/04/22 01:14:04;;;;;;;183.07;170.55;;;;;;;;;;4392486;32;20078;-83
2021/04/22 01:16:33;;;;;;;302.13;281.90;;;;;;;;;;4381419;32;20113;-83
2021/04/22 01:19:09;;;;;;;154.27;143.13;;;;;;;;;;4378119;32;20104;-84
2021/04/22 01:21:37;;;;;;;224.75;207.23;;;;;;;;;;4393082;32;20094;-83
2021/04/22 01:24:05;;;;;;;287.00;265.83;;;;;;;;;;4397218;32;20395;-84
2021/04/22 01:26:36;;;;;;;355.08;329.67;;;;;;;;;;4393167;32;20082;-85
2021/04/22 01:29:07;;;;;;;201.40;186.90;;;;;;;;;;4385882;32;20132;-84
2021/04/22 01:31:38;;;;;;;144.05;133.68;;;;;;;;;;4394224;32;20084;-84
2021/04/22 01:34:10;;;;;;;151.20;140.25;;;;;;;;;;4391529;32;20099;-84
2021/04/22 01:36:43;;;;;;;230.80;215.98;;;;;;;;;;4376790;32;20143;-83
2021/04/22 01:39:16;;;;;;;240.60;223.87;;;;;;;;;;4373637;32;20121;-83
2021/04/22 01:41:47;;;;;;;409.05;379.70;;;;;;;;;;4388773;32;20514;-84
2021/04/22 01:44:16;;;;;;;449.90;417.52;;;;;;;;;;4389863;32;20054;-84
2021/04/22 01:46:46;;;;;;;220.45;204.45;;;;;;;;;;4377247;32;20140;-83
2021/04/22 01:49:16;;;;;;;113.18;105.50;;;;;;;;;;4380115;32;20055;-84
2021/04/22 01:51:47;;;;;;;247.52;232.12;;;;;;;;;;4386519;32;20114;-84
2021/04/22 01:54:17;;;;;;;42.35;39.58;;;;;;;;;;4384052;32;20479;-84
2021/04/22 01:56:46;;;;;;;296.55;277.65;;;;;;;;;;4377905;32;20112;-84
2021/04/22 01:59:17;;;;;;;296.67;277.58;;;;;;;;;;4382349;32;20087;-84
2021/04/22 02:01:45;;;;;;;170.12;158.52;;;;;;;;;;4388547;32;20126;-84
2021/04/22 02:04:15;;;;;;;132.40;123.62;;;;;;;;;;4389849;32;20185;-83
2021/04/22 02:06:46;;;;;;;114.90;107.87;;;;;;;;;;4383250;32;20157;-83
2021/04/22 02:09:17;;;;;;;197.70;184.68;;;;;;;;;;4367349;32;20055;-84
2021/04/22 02:11:45;;;;;;;77.35;72.07;;;;;;;;;;4395322;32;20125;-83
2021/04/22 02:14:15;;;;;;;238.98;222.60;;;;;;;;;;4382302;32;20058;-84
2021/04/22 02:16:45;;;;;;;152.30;141.23;;;;;;;;;;4378342;32;20104;-84
2021/04/22 02:19:14;;;;;;;117.72;109.65;;;;;;;;;;4391021;32;20100;-84
2021/04/22 02:21:42;;;;;;;135.23;126.40;;;;;;;;;;4378056;32;20081;-84
2021/04/22 02:24:12;;;;;;;174.85;163.37;;;;;;;;;;4386493;32;20058;-84
2021/04/22 02:26:40;;;;;;;85.93;80.28;;;;;;;;;;4379853;32;20093;-84
2021/04/22 02:29:11;;;;;;;91.87;85.85;;;;;;;;;;4388688;32;20051;-83
2021/04/22 02:31:41;;;;;;;68.32;63.60;;;;;;;;;;4394419;32;20183;-84
2021/04/22 02:34:15;;;;;;;278.65;260.40;;;;;;;;;;4376813;32;20046;-84
2021/04/22 02:36:45;;;;;;;248.18;232.40;;;;;;;;;;4378437;32;20758;-84
2021/04/22 02:39:15;;;;;;;89.22;83.45;;;;;;;;;;4385391;32;20090;-83
2021/04/22 02:41:46;;;;;;;65.72;61.20;;;;;;;;;;4383767;32;20269;-83
2021/04/22 02:44:18;;;;;;;152.70;143.90;;;;;;;;;;4382261;32;20528;-84
2021/04/22 02:46:49;;;;;;;156.55;146.68;;;;;;;;;;4392743;32;20055;-83
2021/04/22 02:49:17;;;;;;;199.20;186.68;;;;;;;;;;4390238;32;20444;-84
2021/04/22 02:51:48;;;;;;;152.43;143.20;;;;;;;;;;4394773;32;20152;-84
2021/04/22 02:54:19;;;;;;;191.70;179.05;;;;;;;;;;4390598;32;20437;-84
2021/04/22 02:56:49;;;;;;;240.93;223.82;;;;;;;;;;4371259;32;20420;-83
2021/04/22 02:59:19;;;;;;;148.43;138.50;;;;;;;;;;4385264;32;20051;-84
2021/04/22 03:01:53;;;;;;;283.52;264.40;;;;;;;;;;4394386;32;20051;-84
2021/04/22 03:04:23;;;;;;;103.12;95.95;;;;;;;;;;4395171;32;20099;-83
2021/04/22 03:07:00;;;;;;;124.15;115.70;;;;;;;;;;4383193;32;20097;-84
2021/04/22 03:09:30;;;;;;;105.00;98.05;;;;;;;;;;4384673;32;20054;-84
2021/04/22 03:12:03;;;;;;;150.07;139.60;;;;;;;;;;4421599;27;20139;-94
2021/04/22 03:14:31;;;;;;;258.48;242.60;;;;;;;;;;4388091;32;20131;-95
2021/04/22 03:17:04;;;;;;;140.60;131.60;;;;;;;;;;4389651;32;20106;-94
2021/04/22 03:19:39;;;;;;;208.30;195.60;;;;;;;;;;4388345;32;20149;-94
2021/04/22 03:22:18;;;;;;;88.05;82.90;;;;;;;;;;4385364;32;20082;-93
2021/04/22 03:24:46;;;;;;;218.48;204.63;;;;;;;;;;4387134;32;20081;-94
2021/04/22 03:27:19;;;;;;;60.08;56.60;;;;;;;;;;4377690;32;20121;-93
2021/04/22 03:29:52;;;;;;;154.07;145.10;;;;;;;;;;4388730;32;20089;-95
2021/04/22 03:32:21;;;;;;;165.77;154.30;;;;;;;;;;4389551;32;20367;-95
2021/04/22 03:34:52;;;;;;;212.73;198.80;;;;;;;;;;4411220;32;20054;-94
2021/04/22 03:37:23;;;;;;;115.40;107.83;;;;;;;;;;4382056;32;20106;-92
2021/04/22 03:39:57;;;;;;;121.65;113.85;;;;;;;;;;4395534;32;20100;-92
2021/04/22 03:42:28;;;;;;;297.70;278.52;;;;;;;;;;4389264;32;20091;-93
2021/04/22 03:45:00;;;;;;;239.38;223.35;;;;;;;;;;4389249;32;20042;-95
2021/04/22 03:47:33;;;;;;;149.65;139.77;;;;;;;;;;4390966;32;20134;-96
2021/04/22 03:50:01;;;;;;;113.85;106.72;;;;;;;;;;4390431;32;20136;-96
2021/04/22 03:52:31;;;;;;;293.05;273.27;;;;;;;;;;4391688;32;20552;-93
2021/04/22 03:55:02;;;;;;;253.43;236.20;;;;;;;;;;4404796;32;20045;-92
2021/04/22 03:57:44;;;;;;;242.50;228.20;;;;;;;;;;4391617;32;20098;-93
2021/04/22 04:00:19;;;;;;;43.17;40.05;;;;;;;;;;4397128;32;20075;-95
2021/04/22 04:02:48;;;;;;;248.07;232.12;;;;;;;;;;4388167;32;20070;-91
2021/04/22 04:05:19;;;;;;;415.60;387.10;;;;;;;;;;4392680;32;20379;-95
2021/04/22 04:07:56;;;;;;;253.30;237.00;;;;;;;;;;4386752;32;20066;-95
2021/04/22 04:10:24;;;;;;;127.28;118.68;;;;;;;;;;4399397;32;20095;-92
2021/04/22 04:13:00;;;;;;;229.68;214.65;;;;;;;;;;4404036;32;20059;-93
2021/04/22 04:15:33;;;;;;;146.87;137.90;;;;;;;;;;4392779;32;20055;-95
2021/04/22 04:18:02;;;;;;;73.03;68.78;;;;;;;;;;4410366;32;20101;-94
2021/04/22 04:20:34;;;;;;;119.18;111.37;;;;;;;;;;4392151;32;20077;-95
2021/04/22 04:23:03;;;;;;;201.50;188.65;;;;;;;;;;4392775;32;20042;-94
2021/04/22 04:25:31;;;;;;;167.23;156.70;;;;;;;;;;4392340;32;20104;-94
2021/04/22 04:28:03;;;;;;;100.32;93.35;;;;;;;;;;4405473;32;20057;-93
2021/04/22 04:30:37;;;;;;;236.93;222.18;;;;;;;;;;4394525;32;20395;-94
2021/04/22 04:33:05;;;;;;;168.35;156.93;;;;;;;;;;4394933;32;20402;-95
2021/04/22 04:35:36;;;;;;;202.35;189.93;;;;;;;;;;4394158;32;20070;-93
2021/04/22 04:38:07;;;;;;;176.12;165.20;;;;;;;;;;4396489;32;20088;-94
2021/04/22 04:40:38;;;;;;;109.80;103.38;;;;;;;;;;4409346;32;20062;-94
2021/04/22 04:43:08;;;;;;;44.42;41.75;;;;;;;;;;4395208;32;20362;-93
2021/04/22 04:45:46;;;;;;;180.98;169.23;;;;;;;;;;4395849;32;20438;-95
2021/04/22 04:48:19;;;;;;;164.68;155.02;;;;;;;;;;4395978;32;20088;-94
2021/04/22 04:50:48;;;;;;;140.93;132.43;;;;;;;;;;4398335;32;20050;-94
2021/04/22 04:53:27;;;;;;;82.43;76.93;;;;;;;;;;4389609;32;20467;-95
2021/04/22 04:56:00;;;;;;;73.10;68.60;;;;;;;;;;4393806;32;20054;-95
2021/04/22 04:58:38;;;;;;;87.53;82.20;;;;;;;;;;4385921;32;20748;-95
2021/04/22 05:01:28;;;;;;;29.92;28.10;;;;;;;;;;4386869;32;20062;-94
2021/04/22 05:03:56;;;;;;;36.25;33.97;;;;;;;;;;4392399;32;20070;-93
2021/04/22 05:06:24;;;;;;;47.25;44.40;;;;;;;;;;4393489;32;20050;-95
2021/04/22 05:08:58;;;;;;;50.95;47.62;;;;;;;;;;4394569;32;20058;-96
2021/04/22 05:11:33;;;;;;;28.62;26.75;;;;;;;;;;4394308;32;20116;-93
2021/04/22 05:14:08;;;;;;;80.47;75.53;;;;;;;;;;4387838;32;20443;-93
2021/04/22 05:16:39;;;;;;;148.02;138.07;;;;;;;;;;4394482;32;20042;-94
2021/04/22 05:19:08;;;;;;;91.95;86.53;;;;;;;;;;4398550;32;20097;-96
2021/04/22 05:21:46;;;;;;;79.25;73.82;;;;;;;;;;4394652;32;20062;-94
2021/04/22 05:24:15;;;;;;;156.00;146.05;;;;;;;;;;4408352;32;20053;-93
2021/04/22 05:26:47;;;;;;;118.47;111.07;;;;;;;;;;4381306;32;20058;-94
2021/04/22 05:29:25;;;;;;;239.05;224.07;;;;;;;;;;4396765;32;20122;-93
2021/04/22 05:31:57;;;;;;;51.20;48.25;;;;;;;;;;4391543;32;20123;-94
2021/04/22 05:34:33;;;;;;;58.65;55.25;;;;;;;;;;4393122;32;20064;-94
2021/04/22 05:37:03;;;;;;;57.70;54.25;;;;;;;;;;4383296;32;20056;-95
2021/04/22 05:39:37;;;;;;;55.30;52.00;;;;;;;;;;4384061;32;20062;-93
2021/04/22 05:42:08;;;;;;;172.35;160.90;;;;;;;;;;4394510;32;20485;-95
2021/04/22 05:44:43;;;;;;;50.38;47.40;;;;;;;;;;4389191;32;20390;-93
2021/04/22 05:47:20;;;;;;;37.38;35.17;;;;;;;;;;4391979;32;20081;-94
2021/04/22 05:49:52;;;;;;;60.95;57.17;;;;;;;;;;4391724;32;20054;-95
2021/04/22 05:52:22;;;;;;;35.08;33.08;;;;;;;;;;4403226;32;20058;-94
2021/04/22 05:54:56;;;;;;;156.47;146.33;;;;;;;;;;4392586;32;20395;-95
2021/04/22 05:57:39;;;;;;;59.05;55.70;;;;;;;;;;4390622;32;20066;-95
2021/04/22 06:00:19;;;;;;;59.00;55.38;;;;;;;;;;4394370;32;20094;-95
2021/04/22 06:02:52;;;;;;;53.10;49.63;;;;;;;;;;4393044;32;20109;-96
2021/04/22 06:05:23;;;;;;;66.68;62.33;;;;;;;;;;4394701;32;20078;-93
2021/04/22 06:07:53;;;;;;;81.30;76.47;;;;;;;;;;4391148;32;20124;-95
2021/04/22 06:10:24;;;;;;;85.70;80.03;;;;;;;;;;4392086;32;20096;-95
2021/04/22 06:12:59;;;;;;;71.20;66.93;;;;;;;;;;4393970;32;20063;-93
2021/04/22 06:15:32;;;;;;;177.40;166.85;;;;;;;;;;4393491;32;20062;-94
2021/04/22 06:18:01;;;;;;;225.68;212.52;;;;;;;;;;4393866;32;20458;-94
2021/04/22 06:20:36;;;;;;;61.97;58.30;;;;;;;;;;4390719;32;20079;-93
2021/04/22 06:23:32;;;;;;;231.55;217.02;;;;;;;;;;4400736;32;20074;-95
2021/04/22 06:26:08;;;;;;;48.15;45.28;;;;;;;;;;4395335;32;20144;-95
2021/04/22 06:28:37;;;;;;;49.22;46.35;;;;;;;;;;4406764;32;20131;-95
2021/04/22 06:31:05;;;;;;;80.35;75.18;;;;;;;;;;4393218;32;20054;-95
2021/04/22 06:33:35;;;;;;;36.83;34.70;;;;;;;;;;4388004;32;20088;-95
2021/04/22 06:36:06;;;;;;;117.18;109.87;;;;;;;;;;4393642;32;20089;-95
2021/04/22 06:39:02;;;;;;;57.67;54.13;;;;;;;;;;4383618;32;20057;-93
2021/04/22 06:41:39;;;;;;;91.10;85.80;;;;;;;;;;4385640;32;20039;-94
2021/04/22 06:44:07;;;;;;;32.20;30.15;;;;;;;;;;4391813;32;20112;-93
2021/04/22 06:46:38;;;;;;;58.97;54.92;;;;;;;;;;4395249;32;20050;-93
2021/04/22 06:49:07;;;;;;;43.65;41.13;;;;;;;;;;4395770;32;20038;-94
2021/04/22 06:51:35;;;;;;;147.52;138.50;;;;;;;;;;4391739;32;20129;-94
2021/04/22 06:54:09;;;;;;;66.00;62.28;;;;;;;;;;4393378;32;20435;-94
2021/04/22 06:56:37;;;;;;;109.95;103.12;;;;;;;;;;4393265;32;20050;-93
2021/04/22 06:59:12;;;;;;;62.03;58.42;;;;;;;;;;4404263;32;20072;-93
2021/04/22 07:01:43;;;;;;;83.95;78.82;;;;;;;;;;4393460;32;20038;-93
2021/04/22 07:04:14;;;;;;;55.20;51.72;;;;;;;;;;4395101;32;20064;-93
2021/04/22 07:06:48;;;;;;;38.10;35.63;;;;;;;;;;4392041;32;20038;-94
2021/04/22 07:09:21;;;;;;;74.15;69.78;;;;;;;;;;4390216;32;20058;-94
2021/04/22 07:11:50;;;;;;;41.60;39.28;;;;;;;;;;4386114;32;20066;-94
2021/04/22 07:14:20;;;;;;;109.00;102.40;;;;;;;;;;4392063;32;20054;-94
2021/04/22 07:16:49;;;;;;;40.47;38.00;;;;;;;;;;4390591;32;20072;-96
2021/04/22 07:19:22;;;;;;;89.13;84.22;;;;;;;;;;4390142;32;20051;-93
2021/04/22 07:21:53;;;;;;;117.28;109.93;;;;;;;;;;4389979;32;20390;-93
2021/04/22 07:24:21;;;;;;;221.05;207.70;;;;;;;;;;4391349;32;20108;-94
2021/04/22 07:27:00;;;;;;;140.27;131.10;;;;;;;;;;4392229;32;20110;-95
2021/04/22 07:29:33;;;;;;;87.80;83.07;;;;;;;;;;4381794;32;20094;-94
2021/04/22 07:32:09;;;;;;;315.90;296.25;;;;;;;;;;4391007;32;20055;-95
2021/04/22 07:34:39;;;;;;;184.37;173.70;;;;;;;;;;4381736;32;20100;-95
2021/04/22 07:37:12;;;;;;;174.07;164.20;;;;;;;;;;4389146;32;20058;-95
2021/04/22 07:39:43;;;;;;;141.93;134.23;;;;;;;;;;4389193;32;20471;-93
2021/04/22 07:42:25;;;;;;;410.95;384.13;;;;;;;;;;4400823;32;20077;-96
2021/04/22 07:44:56;;;;;;;85.55;80.78;;;;;;;;;;4379582;32;20120;-96
2021/04/22 07:47:30;;;;;;;104.53;98.50;;;;;;;;;;4400804;32;20073;-96
2021/04/22 07:49:58;;;;;;;44.70;42.10;;;;;;;;;;4391258;32;20068;-96
2021/04/22 07:52:32;;;;;;;62.05;58.53;;;;;;;;;;4387599;32;20065;-95
2021/04/22 07:55:11;;;;;;;70.93;66.55;;;;;;;;;;4393196;32;20086;-94
2021/04/22 07:57:44;;;;;;;47.33;44.78;;;;;;;;;;4395786;32;20183;-96
2021/04/22 08:00:25;;;;;;;48.83;46.17;;;;;;;;;;4401319;32;20050;-96
2021/04/22 08:03:01;;;;;;;66.68;62.72;;;;;;;;;;4392597;32;20069;-96
2021/04/22 08:05:38;;;;;;;83.15;77.40;;;;;;;;;;4396740;32;20062;-95
2021/04/22 08:08:07;;;;;;;168.43;155.27;;;;;;;;;;4394784;32;20109;-95
2021/04/22 08:10:52;;;;;;;82.47;77.12;;;;;;;;;;4378547;32;20072;-95
2021/04/22 08:13:28;;;;;;;111.75;103.87;;;;;;;;;;4382587;32;20414;-95
2021/04/22 08:15:58;;;;;;;134.50;125.00;;;;;;;;;;4395372;32;20054;-95
2021/04/22 08:18:32;;;;;;;111.30;104.20;;;;;;;;;;4406371;32;20047;-94
2021/04/22 08:21:03;;;;;;;137.77;129.18;;;;;;;;;;4394741;32;20047;-95
2021/04/22 08:23:34;;;;;;;125.72;117.65;;;;;;;;;;4395064;32;20139;-95
2021/04/22 08:26:10;;;;;;;258.83;241.48;;;;;;;;;;4390438;32;20055;-96
2021/04/22 08:28:41;;;;;;;152.85;143.82;;;;;;;;;;4396042;32;20383;-94
2021/04/22 08:31:31;;;;;;;55.88;52.62;;;;;;;;;;4392460;32;20055;-96
2021/04/22 08:34:08;;;;;;;144.35;135.07;;;;;;;;;;4404617;32;20090;-95
2021/04/22 08:37:03;;;;;;;141.18;132.48;;;;;;;;;;4396758;32;20369;-96
2021/04/22 08:39:39;;;;;;;46.53;43.83;;;;;;;;;;4393192;32;20539;-94
2021/04/22 08:42:10;;;;;;;152.73;143.70;;;;;;;;;;4394131;32;20095;-96
2021/04/22 08:44:44;;;;;;;101.12;92.90;;;;;;;;;;4393531;32;20042;-95
2021/04/22 08:47:17;;;;;;;145.85;137.02;;;;;;;;;;4388865;32;20046;-94
2021/04/22 08:49:57;;;;;;;102.03;96.25;;;;;;;;;;4388859;32;20065;-96
2021/04/22 08:52:47;;;;;;;119.03;111.88;;;;;;;;;;4396254;32;20080;-95
2021/04/22 08:55:26;;;;;;;104.07;97.97;;;;;;;;;;4391961;32;20092;-96
2021/04/22 08:57:59;;;;;;;91.60;86.47;;;;;;;;;;4405092;32;20081;-95
2021/04/22 09:00:42;;;;;;;43.53;41.15;;;;;;;;;;4405637;32;20099;-95
2021/04/22 09:03:14;;;;;;;85.70;80.50;;;;;;;;;;4401163;32;20100;-96
2021/04/22 09:05:45;;;;;;;124.47;117.28;;;;;;;;;;4382359;32;20098;-96
2021/04/22 09:08:37;;;;;;;82.55;77.65;;;;;;;;;;4407286;32;20088;-95
2021/04/22 09:11:26;;;;;;;54.05;51.13;;;;;;;;;;4396233;32;20043;-95
2021/04/22 09:14:10;;;;;;;35.25;33.22;;;;;;;;;;4394581;32;20073;-96
2021/04/22 09:16:45;;;;;;;70.15;65.93;;;;;;;;;;4390988;32;20058;-95
2021/04/22 09:19:23;;;;;;;26.02;24.52;;;;;;;;;;4398137;32;20073;-96
2021/04/22 09:22:18;;;;;;;34.85;32.92;;;;;;;;;;4389890;32;20583;-95
2021/04/22 09:24:46;;;;;;;71.10;64.87;;;;;;;;;;4406886;32;20223;-96
2021/04/22 09:27:16;;;;;;;34.22;32.22;;;;;;;;;;4388422;32;20718;-96
2021/04/22 09:29:54;;;;;;;70.82;66.75;;;;;;;;;;4397491;32;20099;-95
2021/04/22 09:32:28;;;;;;;39.05;36.80;;;;;;;;;;4407491;32;20090;-96
2021/04/22 09:35:11;;;;;;;50.85;47.88;;;;;;;;;;4394006;32;20437;-96
2021/04/22 09:37:43;;;;;;;112.95;106.12;;;;;;;;;;4391352;32;20424;-96
2021/04/22 09:40:33;;;;;;;55.83;52.58;;;;;;;;;;4393016;32;20439;-96
2021/04/22 09:43:06;;;;;;;36.05;33.67;;;;;;;;;;4389165;32;20067;-96
2021/04/22 09:45:49;;;;;;;37.88;35.75;;;;;;;;;;4384599;32;20508;-96
2021/04/22 09:48:32;;;;;;;22.85;21.45;;;;;;;;;;4386503;32;20080;-96
2021/04/22 09:51:11;;;;;;;100.70;94.32;;;;;;;;;;4394962;32;20064;-96
2021/04/22 09:53:42;;;;;;;51.13;48.40;;;;;;;;;;4393114;32;20054;-95
2021/04/22 09:56:17;;;;;;;46.35;43.45;;;;;;;;;;4390474;32;20096;-96
2021/04/22 09:59:07;;;;;;;85.70;80.93;;;;;;;;;;4403720;32;20441;-96
2021/04/22 10:01:38;;;;;;;51.13;48.35;;;;;;;;;;4393110;32;20041;-96
2021/04/22 10:04:12;;;;;;;131.65;124.25;;;;;;;;;;4389466;32;20074;-96
2021/04/22 10:06:45;;;;;;;67.15;63.40;;;;;;;;;;4384140;32;20058;-96
2021/04/22 10:09:39;;;;;;;103.62;98.07;;;;;;;;;;4394439;32;20392;-96
2021/04/22 10:12:19;;;;;;;68.05;64.75;;;;;;;;;;4399168;32;20093;-96
2021/04/22 10:15:25;;;;;;;51.35;48.33;;;;;;;;;;4407875;32;20090;-96
2021/04/22 10:18:45;;;;;;;62.72;58.28;;;;;;;;;;4416269;32;20089;-95
2021/04/22 10:21:17;;;;;;;26.37;24.80;;;;;;;;;;4379144;32;20051;-96
2021/04/22 10:23:47;;;;;;;37.67;35.72;;;;;;;;;;4388992;32;20059;-96
2021/04/22 10:26:19;;;;;;;31.52;29.63;;;;;;;;;;4390540;32;20084;-96
2021/04/22 10:28:47;;;;;;;158.35;147.05;;;;;;;;;;4391835;32;20482;-96
2021/04/22 10:31:32;;;;;;;176.02;161.62;;;;;;;;;;4391835;32;20450;-96
2021/04/22 10:34:09;;;;;;;168.65;156.73;;;;;;;;;;4404371;32;20046;-94
2021/04/22 10:36:45;;;;;;;288.05;260.75;;;;;;;;;;4386074;32;20042;-94
2021/04/22 10:39:23;;;;;;;88.45;82.55;;;;;;;;;;4393468;32;20159;-96
2021/04/22 10:41:58;;;;;;;91.87;86.28;;;;;;;;;;4388326;32;20112;-96
2021/04/22 10:44:32;;;;;;;64.80;60.95;;;;;;;;;;4402640;32;20068;-96
2021/04/22 10:47:05;;;;;;;258.35;236.25;;;;;;;;;;4392936;32;20066;-93
2021/04/22 10:49:39;;;;;;;505.63;460.58;;;;;;;;;;4405594;32;20043;-95
2021/04/22 10:52:10;;;;;;;294.85;270.77;;;;;;;;;;4393933;32;20035;-95
2021/04/22 10:54:45;;;;;;;174.75;162.55;;;;;;;;;;4404203;32;20096;-95
2021/04/22 10:57:17;;;;;;;581.05;528.15;;;;;;;;;;4390521;32;20061;-95
2021/04/22 10:59:48;;;;;;;148.25;137.32;;;;;;;;;;4389606;32;20054;-94
2021/04/22 11:02:29;;;;;;;;;;;;;;;;;;4393678;32;20410;-96
2021/04/22 11:05:05;;;;;;;146.50;135.25;;;;;;;;;;4385554;32;19956;-95
2021/04/22 11:07:43;;;;;;;160.68;148.68;;;;;;;;;;4392695;32;20081;-94
2021/04/22 11:10:14;;;;;;;200.32;183.75;;;;;;;;;;4391718;32;20089;-94
2021/04/22 11:12:48;;;;;;;111.68;103.90;;;;;;;;;;4385238;32;20106;-95
2021/04/22 11:15:22;;;;;;;290.83;265.50;;;;;;;;;;4393798;32;20051;-96
2021/04/22 11:17:50;;;;;;;52.30;49.22;;;;;;;;;;4391313;32;20042;-94
2021/04/22 11:20:22;;;;;;;310.52;283.48;;;;;;;;;;4391182;32;20050;-95
2021/04/22 11:22:53;;;;;;;215.20;199.70;;;;;;;;;;4405766;32;20042;-96
2021/04/22 11:25:30;;;;;;;496.30;449.48;;;;;;;;;;4396439;32;20058;-96
2021/04/22 11:28:05;;;;;;;171.20;160.35;;;;;;;;;;4394827;32;20068;-96
2021/04/22 11:30:45;;;;;;;276.73;257.50;;;;;;;;;;4398186;32;20062;-96
2021/04/22 11:33:28;;;;;;;326.45;302.40;;;;;;;;;;4389228;32;20092;-96
2021/04/22 11:36:31;;;;;;;587.15;534.65;;;;;;;;;;4398352;32;20050;-96
2021/04/22 11:39:10;;;;;;;201.73;186.32;;;;;;;;;;4397248;32;20098;-96
2021/04/22 11:41:46;;;;;;;116.70;108.82;;;;;;;;;;4397144;32;20056;-96
2021/04/22 11:44:18;;;;;;;93.85;88.90;;;;;;;;;;4393925;32;20068;-96
2021/04/22 11:46:56;;;;;;;97.53;90.28;;;;;;;;;;4399488;32;20062;-96
2021/04/22 11:49:33;;;;;;;42.85;40.33;;;;;;;;;;4397790;32;20050;-96
2021/04/22 11:52:14;;;;;;;172.70;162.07;;;;;;;;;;4395553;32;20112;-96
2021/04/22 11:54:49;;;;;;;316.30;289.63;;;;;;;;;;4420454;32;20050;-96
2021/04/22 11:57:21;;;;;;;177.73;163.18;;;;;;;;;;4405328;32;20069;-96
2021/04/22 12:00:12;;;;;;;;;;;;;;;;;;;;;
2021/04/22 12:02:42;;;;;;;288.62;262.77;;;;;;;;;;4407203;32;20125;-96
2021/04/22 12:05:21;;;;;;;283.08;259.55;;;;;;;;;;4404258;32;20047;-96
2021/04/22 12:08:06;;;;;;;130.02;120.37;;;;;;;;;;4393020;32;20043;-96
2021/04/22 12:10:37;;;;;;;438.37;397.67;;;;;;;;;;4396845;32;20035;-96
2021/04/22 12:13:35;;;;;;;60.95;57.85;;;;;;;;;;4385367;32;20058;-96
2021/04/22 12:16:10;;;;;;;239.23;218.77;;;;;;;;;;4398836;32;20069;-96
2021/04/22 12:19:07;;;;;;;148.07;139.15;;;;;;;;;;4390965;32;20112;-96
2021/04/22 12:21:41;;;;;;;138.77;129.05;;;;;;;;;;4380227;32;20546;-96
2021/04/22 12:24:10;;;;;;;53.05;50.35;;;;;;;;;;4374184;32;20043;-96
2021/04/22 12:26:47;;;;;;;70.30;66.07;;;;;;;;;;4390517;32;20043;-96
2021/04/22 12:29:25;;;;;;;220.80;203.73;;;;;;;;;;4383114;32;20085;-96
2021/04/22 12:32:03;;;;;;;65.00;61.55;;;;;;;;;;4381664;32;20047;-96
2021/04/22 12:34:39;;;;;;;48.47;46.03;;;;;;;;;;4400169;32;20043;-96
2021/04/22 12:37:35;;;;;;;55.20;52.40;;;;;;;;;;4394648;32;20070;-96
2021/04/22 12:40:12;;;;;;;35.15;33.28;;;;;;;;;;4395110;32;20116;-96
2021/04/22 12:43:02;;;;;;;112.75;105.90;;;;;;;;;;4399379;32;20055;-96
2021/04/22 12:46:18;;;;;;;46.53;44.00;;;;;;;;;;4390241;32;20097;-96
2021/04/22 12:49:01;;;;;;;146.60;137.00;;;;;;;;;;4394941;32;20462;-96
2021/04/22 12:51:38;;;;;;;110.30;102.90;;;;;;;;;;4377837;32;20132;-96
2021/04/22 12:54:24;;;;;;;134.18;124.32;;;;;;;;;;4383961;32;20142;-96
2021/04/22 12:56:56;;;;;;;227.27;209.02;;;;;;;;;;4381314;32;20051;-96
2021/04/22 12:59:28;;;;;;;322.17;294.55;;;;;;;;;;4384635;32;20118;-96
2021/04/22 13:02:13;;;;;;;206.23;191.18;;;;;;;;;;4383463;32;20070;-96
2021/04/22 13:04:55;;;;;;;120.62;112.70;;;;;;;;;;4384807;32;20104;-96
2021/04/22 13:07:28;;;;;;;86.00;79.80;;;;;;;;;;4377132;32;20362;-96
2021/04/22 13:09:57;;;;;;;219.60;204.73;;;;;;;;;;4379112;32;20059;-96
2021/04/22 13:12:33;;;;;;;242.37;221.52;;;;;;;;;;4382310;32;20424;-96
2021/04/22 13:15:07;;;;;;;223.43;204.65;;;;;;;;;;4391966;32;20098;-96
2021/04/22 13:17:35;;;;;;;45.70;43.33;;;;;;;;;;4387983;32;20090;-96
2021/04/22 13:20:19;;;;;;;45.22;42.60;;;;;;;;;;4378953;32;20051;-96
2021/04/22 13:22:52;;;;;;;40.53;38.42;;;;;;;;;;4381605;32;20058;-96
2021/04/22 13:25:28;;;;;;;167.18;156.48;;;;;;;;;;4383568;32;20051;-96
2021/04/22 13:28:11;;;;;;;185.43;170.82;;;;;;;;;;4385133;32;20058;-96
2021/04/22 13:30:45;;;;;;;343.33;312.00;;;;;;;;;;4386814;32;20082;-96
2021/04/22 13:33:25;;;;;;;469.33;425.77;;;;;;;;;;4389933;32;20054;-96
2021/04/22 13:39:26;;;;;;;93.78;87.50;;;;;;;;;;4384753;27;20123;-85
2021/04/22 13:41:57;;;;;;;236.27;217.00;;;;;;;;;;4344980;32;20150;-85
2021/04/22 13:44:29;;;;;;;371.30;338.90;;;;;;;;;;4354236;32;20648;-86
2021/04/22 13:47:01;;;;;;;171.70;160.02;;;;;;;;;;4350789;32;20470;-85
2021/04/22 13:49:30;;;;;;;320.00;293.42;;;;;;;;;;4353711;32;20097;-86
2021/04/22 13:52:09;;;;;;;46.30;43.55;;;;;;;;;;4347291;32;20454;-85
2021/04/22 13:54:40;;;;;;;232.50;213.62;;;;;;;;;;4355281;32;20181;-85
2021/04/22 13:57:15;;;;;;;34.60;32.80;;;;;;;;;;4354843;32;20120;-85
2021/04/22 13:59:44;;;;;;;78.25;73.53;;;;;;;;;;4352819;32;20492;-85
2021/04/22 14:02:13;;;;;;;40.00;37.65;;;;;;;;;;4360607;32;20951;-86
2021/04/22 14:04:47;;;;;;;280.87;257.87;;;;;;;;;;4361724;32;20157;-86
2021/04/22 14:07:25;;;;;;;233.68;214.00;;;;;;;;;;4361424;32;20077;-86
2021/04/22 14:10:00;;;;;;;92.07;86.47;;;;;;;;;;4359747;32;20853;-86
2021/04/22 14:12:32;;;;;;;278.75;256.80;;;;;;;;;;4374316;32;20128;-85
2021/04/22 14:15:06;;;;;;;186.57;173.05;;;;;;;;;;4361080;32;20138;-85
2021/04/22 14:17:34;;;;;;;18.87;17.80;;;;;;;;;;4369470;32;20518;-86
2021/04/22 14:20:06;;;;;;;194.35;179.73;;;;;;;;;;4360143;32;20100;-85
2021/04/22 14:22:37;;;;;;;24.52;23.25;;;;;;;;;;4375524;32;20232;-86
2021/04/22 14:25:06;;;;;;;291.65;268.37;;;;;;;;;;4378995;32;20122;-85
2021/04/22 14:27:36;;;;;;;249.35;229.77;;;;;;;;;;4380560;32;20157;-86
2021/04/22 14:30:08;;;;;;;28.27;26.62;;;;;;;;;;4375319;32;20532;-85
2021/04/22 14:32:38;;;;;;;84.68;80.05;;;;;;;;;;4374085;32;20589;-87
2021/04/22 14:35:09;;;;;;;57.20;53.42;;;;;;;;;;4382749;32;20140;-86
2021/04/22 14:37:37;;;;;;;68.97;65.15;;;;;;;;;;4373868;32;20079;-85
2021/04/22 14:40:28;;;;;;;275.08;253.40;;;;;;;;;;4391207;32;20100;-86
2021/04/22 14:42:58;;;;;;;86.32;80.93;;;;;;;;;;4408018;32;20046;-86
2021/04/22 14:45:29;;;;;;;192.13;175.32;;;;;;;;;;4412957;32;20586;-85
2021/04/22 14:48:00;;;;;;;55.85;52.38;;;;;;;;;;4408888;32;20042;-85